sensor_id;sensor_type;location;lat;lon;timestamp;temperature;humidity
63051;SHT30;49136;47.416;19.402;2023-02-11T00:01:31;-7.66;99.99
63051;SHT30;49136;47.416;19.402;2023-02-11T00:03:58;-7.70;99.99
63051;SHT30;49136;47.416;19.402;2023-02-11T00:06:24;-7.66;99.99
63051;SHT30;49136;47.416;19.402;2023-02-11T00:08:51;-7.60;99.99
63051;SHT30;49136;47.416;19.402;2023-02-11T00:11:19;-7.72;99.99
63051;SHT30;49136;47.416;19.402;2023-02-11T00:13:46;-7.70;99.99
63051;SHT30;49136;47.416;19.402;2023-02-11T00:16:17;-7.76;99.99
63051;SHT30;49136;47.416;19.402;2023-02-11T00:18:43;-7.77;99.99
63051;SHT30;49136;47.416;19.402;2023-02-11T00:21:14;-7.60;99.99
63051;SHT30;49136;47.416;19.402;2023-02-11T00:23:40;-7.70;99.99
63051;SHT30;49136;47.416;19.402;2023-02-11T00:26:20;-7.43;99.99
63051;SHT30;49136;47.416;19.402;2023-02-11T00:28:47;-7.38;99.99
63051;SHT30;49136;47.416;19.402;2023-02-11T00:31:14;-7.49;99.99
63051;SHT30;49136;47.416;19.402;2023-02-11T00:33:41;-7.64;99.99
63051;SHT30;49136;47.416;19.402;2023-02-11T00:36:08;-7.67;99.99
63051;SHT30;49136;47.416;19.402;2023-02-11T00:38:34;-7.76;99.99
63051;SHT30;49136;47.416;19.402;2023-02-11T00:40:59;-7.83;99.99
63051;SHT30;49136;47.416;19.402;2023-02-11T00:43:25;-7.87;99.99
63051;SHT30;49136;47.416;19.402;2023-02-11T00:45:51;-7.89;99.99
63051;SHT30;49136;47.416;19.402;2023-02-11T00:48:16;-7.79;99.99
63051;SHT30;49136;47.416;19.402;2023-02-11T00:50:42;-7.69;99.99
63051;SHT30;49136;47.416;19.402;2023-02-11T00:53:07;-7.63;99.99
63051;SHT30;49136;47.416;19.402;2023-02-11T00:55:33;-7.72;99.99
63051;SHT30;49136;47.416;19.402;2023-02-11T00:57:58;-7.59;99.99
63051;SHT30;49136;47.416;19.402;2023-02-11T01:00:25;-7.66;99.99
63051;SHT30;49136;47.416;19.402;2023-02-11T01:02:51;-7.52;99.99
63051;SHT30;49136;47.416;19.402;2023-02-11T01:05:17;-7.63;99.99
63051;SHT30;49136;47.416;19.402;2023-02-11T01:07:43;-7.69;99.99
63051;SHT30;49136;47.416;19.402;2023-02-11T01:10:08;-7.72;99.99
63051;SHT30;49136;47.416;19.402;2023-02-11T01:12:34;-7.83;99.99
63051;SHT30;49136;47.416;19.402;2023-02-11T01:15:00;-7.89;99.99
63051;SHT30;49136;47.416;19.402;2023-02-11T01:17:26;-7.94;99.99
63051;SHT30;49136;47.416;19.402;2023-02-11T01:19:51;-7.97;99.99
63051;SHT30;49136;47.416;19.402;2023-02-11T01:22:17;-7.98;99.99
63051;SHT30;49136;47.416;19.402;2023-02-11T01:24:42;-8.05;99.99
63051;SHT30;49136;47.416;19.402;2023-02-11T01:27:08;-8.08;99.99
63051;SHT30;49136;47.416;19.402;2023-02-11T01:29:33;-8.04;99.99
63051;SHT30;49136;47.416;19.402;2023-02-11T01:31:59;-8.10;99.99
63051;SHT30;49136;47.416;19.402;2023-02-11T01:34:25;-8.12;99.99
63051;SHT30;49136;47.416;19.402;2023-02-11T01:36:58;-8.15;99.99
63051;SHT30;49136;47.416;19.402;2023-02-11T01:39:25;-8.17;99.99
63051;SHT30;49136;47.416;19.402;2023-02-11T01:41:51;-8.14;99.99
63051;SHT30;49136;47.416;19.402;2023-02-11T01:44:37;-8.02;99.99
63051;SHT30;49136;47.416;19.402;2023-02-11T01:47:04;-8.01;99.99
63051;SHT30;49136;47.416;19.402;2023-02-11T01:49:35;-8.04;99.99
63051;SHT30;49136;47.416;19.402;2023-02-11T01:52:07;-8.05;99.99
63051;SHT30;49136;47.416;19.402;2023-02-11T01:54:35;-8.12;99.99
63051;SHT30;49136;47.416;19.402;2023-02-11T01:57:23;-8.08;99.99
63051;SHT30;49136;47.416;19.402;2023-02-11T01:59:59;-8.02;99.99
63051;SHT30;49136;47.416;19.402;2023-02-11T02:02:43;-8.14;99.99
63051;SHT30;49136;47.416;19.402;2023-02-11T02:05:35;-8.17;99.99
63051;SHT30;49136;47.416;19.402;2023-02-11T02:09:02;-8.14;99.99
63051;SHT30;49136;47.416;19.402;2023-02-11T02:11:07;-8.08;99.99
63051;SHT30;49136;47.416;19.402;2023-02-11T02:13:34;-8.12;99.99
63051;SHT30;49136;47.416;19.402;2023-02-11T02:16:01;-8.12;99.99
63051;SHT30;49136;47.416;19.402;2023-02-11T02:27:39;-8.12;99.99
63051;SHT30;49136;47.416;19.402;2023-02-11T02:33:28;-8.22;99.99
63051;SHT30;49136;47.416;19.402;2023-02-11T02:36:00;-8.28;99.99
63051;SHT30;49136;47.416;19.402;2023-02-11T02:41:30;-8.35;99.99
63051;SHT30;49136;47.416;19.402;2023-02-11T02:43:56;-8.40;99.99
63051;SHT30;49136;47.416;19.402;2023-02-11T02:46:25;-8.36;99.99
63051;SHT30;49136;47.416;19.402;2023-02-11T02:48:52;-8.21;99.99
63051;SHT30;49136;47.416;19.402;2023-02-11T02:56:47;-8.28;99.99
63051;SHT30;49136;47.416;19.402;2023-02-11T03:10:08;-8.53;99.99
63051;SHT30;49136;47.416;19.402;2023-02-11T03:12:36;-8.49;99.99
63051;SHT30;49136;47.416;19.402;2023-02-11T03:15:04;-8.37;99.99
63051;SHT30;49136;47.416;19.402;2023-02-11T03:17:32;-8.46;99.99
63051;SHT30;49136;47.416;19.402;2023-02-11T03:20:01;-8.52;99.99
63051;SHT30;49136;47.416;19.402;2023-02-11T03:22:41;-8.54;99.99
63051;SHT30;49136;47.416;19.402;2023-02-11T03:25:09;-8.53;99.99
63051;SHT30;49136;47.416;19.402;2023-02-11T03:27:42;-8.36;99.99
63051;SHT30;49136;47.416;19.402;2023-02-11T03:30:12;-8.40;99.99
63051;SHT30;49136;47.416;19.402;2023-02-11T03:32:41;-8.49;99.99
63051;SHT30;49136;47.416;19.402;2023-02-11T03:35:31;-8.54;99.99
63051;SHT30;49136;47.416;19.402;2023-02-11T03:38:05;-8.47;99.99
63051;SHT30;49136;47.416;19.402;2023-02-11T03:40:35;-8.52;99.99
63051;SHT30;49136;47.416;19.402;2023-02-11T03:43:15;-8.57;99.99
63051;SHT30;49136;47.416;19.402;2023-02-11T03:45:42;-8.65;99.99
63051;SHT30;49136;47.416;19.402;2023-02-11T03:48:24;-8.61;99.99
63051;SHT30;49136;47.416;19.402;2023-02-11T03:50:51;-8.56;99.99
63051;SHT30;49136;47.416;19.402;2023-02-11T03:53:19;-8.56;99.99
63051;SHT30;49136;47.416;19.402;2023-02-11T03:55:46;-8.64;99.99
63051;SHT30;49136;47.416;19.402;2023-02-11T03:58:13;-8.70;99.99
63051;SHT30;49136;47.416;19.402;2023-02-11T04:00:40;-8.72;99.99
63051;SHT30;49136;47.416;19.402;2023-02-11T04:03:07;-8.74;99.99
63051;SHT30;49136;47.416;19.402;2023-02-11T04:05:33;-8.67;99.99
63051;SHT30;49136;47.416;19.402;2023-02-11T04:07:58;-8.70;99.99
63051;SHT30;49136;47.416;19.402;2023-02-11T04:10:24;-8.61;99.99
63051;SHT30;49136;47.416;19.402;2023-02-11T04:12:49;-8.52;99.99
63051;SHT30;49136;47.416;19.402;2023-02-11T04:15:15;-8.54;99.99
63051;SHT30;49136;47.416;19.402;2023-02-11T04:17:41;-8.63;99.99
63051;SHT30;49136;47.416;19.402;2023-02-11T04:20:07;-8.71;99.99
63051;SHT30;49136;47.416;19.402;2023-02-11T04:22:32;-8.76;99.99
63051;SHT30;49136;47.416;19.402;2023-02-11T04:24:58;-8.78;99.99
63051;SHT30;49136;47.416;19.402;2023-02-11T04:27:23;-8.76;99.99
63051;SHT30;49136;47.416;19.402;2023-02-11T04:29:49;-8.77;99.99
63051;SHT30;49136;47.416;19.402;2023-02-11T04:32:14;-8.81;99.99
63051;SHT30;49136;47.416;19.402;2023-02-11T04:34:40;-8.81;99.99
63051;SHT30;49136;47.416;19.402;2023-02-11T04:37:06;-8.71;99.99
63051;SHT30;49136;47.416;19.402;2023-02-11T04:39:32;-8.61;99.99
63051;SHT30;49136;47.416;19.402;2023-02-11T04:41:58;-8.53;99.99
63051;SHT30;49136;47.416;19.402;2023-02-11T04:44:23;-8.58;99.99
63051;SHT30;49136;47.416;19.402;2023-02-11T04:46:49;-8.50;99.99
63051;SHT30;49136;47.416;19.402;2023-02-11T04:49:15;-8.61;99.99
63051;SHT30;49136;47.416;19.402;2023-02-11T04:51:42;-8.70;99.99
63051;SHT30;49136;47.416;19.402;2023-02-11T04:54:09;-8.77;99.99
63051;SHT30;49136;47.416;19.402;2023-02-11T04:56:34;-8.83;99.99
63051;SHT30;49136;47.416;19.402;2023-02-11T04:58:59;-8.80;99.99
63051;SHT30;49136;47.416;19.402;2023-02-11T05:01:25;-8.83;99.99
63051;SHT30;49136;47.416;19.402;2023-02-11T05:03:50;-8.88;99.99
63051;SHT30;49136;47.416;19.402;2023-02-11T05:06:16;-8.89;99.99
63051;SHT30;49136;47.416;19.402;2023-02-11T05:08:42;-8.87;99.99
63051;SHT30;49136;47.416;19.402;2023-02-11T05:11:14;-8.91;99.99
63051;SHT30;49136;47.416;19.402;2023-02-11T05:13:40;-8.95;99.99
63051;SHT30;49136;47.416;19.402;2023-02-11T05:16:06;-8.96;99.99
63051;SHT30;49136;47.416;19.402;2023-02-11T05:18:31;-8.99;99.99
63051;SHT30;49136;47.416;19.402;2023-02-11T05:20:57;-8.95;99.99
63051;SHT30;49136;47.416;19.402;2023-02-11T05:23:22;-8.91;99.99
63051;SHT30;49136;47.416;19.402;2023-02-11T05:25:48;-8.81;99.99
63051;SHT30;49136;47.416;19.402;2023-02-11T05:28:13;-8.85;99.99
63051;SHT30;49136;47.416;19.402;2023-02-11T05:30:39;-8.76;99.99
63051;SHT30;49136;47.416;19.402;2023-02-11T05:33:04;-8.68;99.99
63051;SHT30;49136;47.416;19.402;2023-02-11T05:35:30;-8.71;99.99
63051;SHT30;49136;47.416;19.402;2023-02-11T05:37:55;-8.68;99.99
63051;SHT30;49136;47.416;19.402;2023-02-11T05:40:21;-8.71;99.99
63051;SHT30;49136;47.416;19.402;2023-02-11T05:42:46;-8.77;99.99
63051;SHT30;49136;47.416;19.402;2023-02-11T05:45:11;-8.78;99.99
63051;SHT30;49136;47.416;19.402;2023-02-11T05:47:37;-8.67;99.99
63051;SHT30;49136;47.416;19.402;2023-02-11T05:50:02;-8.63;99.99
63051;SHT30;49136;47.416;19.402;2023-02-11T05:52:28;-8.64;99.99
63051;SHT30;49136;47.416;19.402;2023-02-11T05:54:53;-8.58;99.99
63051;SHT30;49136;47.416;19.402;2023-02-11T05:57:19;-8.61;99.99
63051;SHT30;49136;47.416;19.402;2023-02-11T05:59:44;-8.52;99.99
63051;SHT30;49136;47.416;19.402;2023-02-11T06:02:10;-8.39;99.99
63051;SHT30;49136;47.416;19.402;2023-02-11T06:04:36;-8.36;99.99
63051;SHT30;49136;47.416;19.402;2023-02-11T06:07:01;-8.33;99.99
63051;SHT30;49136;47.416;19.402;2023-02-11T06:09:27;-8.35;99.99
63051;SHT30;49136;47.416;19.402;2023-02-11T06:11:52;-8.35;99.99
63051;SHT30;49136;47.416;19.402;2023-02-11T06:14:18;-8.21;99.99
63051;SHT30;49136;47.416;19.402;2023-02-11T06:16:43;-8.21;99.99
63051;SHT30;49136;47.416;19.402;2023-02-11T06:19:10;-8.07;99.99
63051;SHT30;49136;47.416;19.402;2023-02-11T06:21:35;-7.93;99.99
63051;SHT30;49136;47.416;19.402;2023-02-11T06:24:01;-7.83;99.99
63051;SHT30;49136;47.416;19.402;2023-02-11T06:26:26;-7.75;99.99
63051;SHT30;49136;47.416;19.402;2023-02-11T06:28:51;-7.67;99.99
63051;SHT30;49136;47.416;19.402;2023-02-11T06:31:17;-7.56;99.99
63051;SHT30;49136;47.416;19.402;2023-02-11T06:33:42;-7.46;99.99
63051;SHT30;49136;47.416;19.402;2023-02-11T06:36:15;-7.34;99.99
63051;SHT30;49136;47.416;19.402;2023-02-11T06:38:41;-7.17;99.99
63051;SHT30;49136;47.416;19.402;2023-02-11T06:41:11;-6.99;99.99
63051;SHT30;49136;47.416;19.402;2023-02-11T06:43:38;-6.82;99.99
63051;SHT30;49136;47.416;19.402;2023-02-11T06:46:03;-6.61;99.99
63051;SHT30;49136;47.416;19.402;2023-02-11T06:48:29;-6.38;99.99
63051;SHT30;49136;47.416;19.402;2023-02-11T06:50:54;-6.09;99.99
63051;SHT30;49136;47.416;19.402;2023-02-11T06:53:20;-5.88;99.99
63051;SHT30;49136;47.416;19.402;2023-02-11T06:55:45;-5.66;99.99
63051;SHT30;49136;47.416;19.402;2023-02-11T06:58:11;-5.40;99.99
63051;SHT30;49136;47.416;19.402;2023-02-11T07:00:36;-5.19;99.99
63051;SHT30;49136;47.416;19.402;2023-02-11T07:03:02;-4.98;99.99
63051;SHT30;49136;47.416;19.402;2023-02-11T07:05:28;-4.80;99.99
63051;SHT30;49136;47.416;19.402;2023-02-11T07:07:53;-4.59;99.99
63051;SHT30;49136;47.416;19.402;2023-02-11T07:10:19;-4.39;99.99
63051;SHT30;49136;47.416;19.402;2023-02-11T07:12:45;-4.21;99.99
63051;SHT30;49136;47.416;19.402;2023-02-11T07:15:11;-4.01;99.83
63051;SHT30;49136;47.416;19.402;2023-02-11T07:17:36;-3.80;99.49
63051;SHT30;49136;47.416;19.402;2023-02-11T07:20:02;-3.61;99.20
63051;SHT30;49136;47.416;19.402;2023-02-11T07:22:28;-3.48;98.67
63051;SHT30;49136;47.416;19.402;2023-02-11T07:24:53;-3.44;98.58
63051;SHT30;49136;47.416;19.402;2023-02-11T07:27:19;-3.40;97.94
63051;SHT30;49136;47.416;19.402;2023-02-11T07:29:44;-3.37;97.25
63051;SHT30;49136;47.416;19.402;2023-02-11T07:32:12;-3.27;96.57
63051;SHT30;49136;47.416;19.402;2023-02-11T07:34:37;-3.19;96.24
63051;SHT30;49136;47.416;19.402;2023-02-11T07:37:03;-3.07;96.00
63051;SHT30;49136;47.416;19.402;2023-02-11T07:39:29;-2.99;95.62
63051;SHT30;49136;47.416;19.402;2023-02-11T07:41:54;-2.86;95.37
63051;SHT30;49136;47.416;19.402;2023-02-11T07:44:21;-2.76;94.61
63051;SHT30;49136;47.416;19.402;2023-02-11T07:46:46;-2.58;93.91
63051;SHT30;49136;47.416;19.402;2023-02-11T07:49:14;-2.39;93.53
63051;SHT30;49136;47.416;19.402;2023-02-11T07:51:39;-2.10;92.93
63051;SHT30;49136;47.416;19.402;2023-02-11T07:54:04;-1.71;92.16
63051;SHT30;49136;47.416;19.402;2023-02-11T07:56:31;-1.39;91.01
63051;SHT30;49136;47.416;19.402;2023-02-11T07:59:00;-1.11;89.40
63051;SHT30;49136;47.416;19.402;2023-02-11T08:01:26;-1.01;88.51
63051;SHT30;49136;47.416;19.402;2023-02-11T08:03:56;-0.98;88.90
63051;SHT30;49136;47.416;19.402;2023-02-11T08:06:23;-0.83;89.12
63051;SHT30;49136;47.416;19.402;2023-02-11T08:08:49;-0.77;88.18
63051;SHT30;49136;47.416;19.402;2023-02-11T08:11:26;-0.62;88.32
63051;SHT30;49136;47.416;19.402;2023-02-11T08:13:52;-0.46;87.92
63051;SHT30;49136;47.416;19.402;2023-02-11T08:18:46;-0.06;88.27
63051;SHT30;49136;47.416;19.402;2023-02-11T08:21:12;0.06;86.85
63051;SHT30;49136;47.416;19.402;2023-02-11T08:23:39;0.13;86.09
63051;SHT30;49136;47.416;19.402;2023-02-11T08:26:13;-0.06;85.29
63051;SHT30;49136;47.416;19.402;2023-02-11T08:28:41;0.10;85.77
63051;SHT30;49136;47.416;19.402;2023-02-11T08:31:13;0.10;84.82
63051;SHT30;49136;47.416;19.402;2023-02-11T08:33:39;0.45;85.58
63051;SHT30;49136;47.416;19.402;2023-02-11T08:36:14;0.50;84.97
63051;SHT30;49136;47.416;19.402;2023-02-11T08:38:40;0.77;85.69
63051;SHT30;49136;47.416;19.402;2023-02-11T08:41:06;0.77;84.76
63051;SHT30;49136;47.416;19.402;2023-02-11T08:43:32;0.80;84.21
63051;SHT30;49136;47.416;19.402;2023-02-11T08:45:58;0.83;84.41
63051;SHT30;49136;47.416;19.402;2023-02-11T08:48:24;0.97;84.33
63051;SHT30;49136;47.416;19.402;2023-02-11T08:50:50;0.84;83.65
63051;SHT30;49136;47.416;19.402;2023-02-11T08:53:15;0.88;83.48
63051;SHT30;49136;47.416;19.402;2023-02-11T08:55:50;0.91;83.62
63051;SHT30;49136;47.416;19.402;2023-02-11T08:58:16;0.81;83.90
63051;SHT30;49136;47.416;19.402;2023-02-11T09:00:42;0.93;83.17
63051;SHT30;49136;47.416;19.402;2023-02-11T09:03:10;1.01;84.15
63051;SHT30;49136;47.416;19.402;2023-02-11T09:05:40;1.05;82.53
63051;SHT30;49136;47.416;19.402;2023-02-11T09:08:06;1.15;82.66
63051;SHT30;49136;47.416;19.402;2023-02-11T09:10:31;1.24;83.11
63051;SHT30;49136;47.416;19.402;2023-02-11T09:12:58;1.44;82.77
63051;SHT30;49136;47.416;19.402;2023-02-11T09:15:24;1.42;82.15
63051;SHT30;49136;47.416;19.402;2023-02-11T09:17:49;1.56;82.12
63051;SHT30;49136;47.416;19.402;2023-02-11T09:20:15;1.73;81.18
63051;SHT30;49136;47.416;19.402;2023-02-11T09:22:40;1.71;80.62
63051;SHT30;49136;47.416;19.402;2023-02-11T09:25:06;1.91;80.81
63051;SHT30;49136;47.416;19.402;2023-02-11T09:27:31;2.08;80.18
63051;SHT30;49136;47.416;19.402;2023-02-11T09:29:56;2.04;79.12
63051;SHT30;49136;47.416;19.402;2023-02-11T09:32:22;2.19;79.31
63051;SHT30;49136;47.416;19.402;2023-02-11T09:34:47;2.19;79.62
63051;SHT30;49136;47.416;19.402;2023-02-11T09:37:13;2.32;78.78
63051;SHT30;49136;47.416;19.402;2023-02-11T09:39:38;2.85;78.17
63051;SHT30;49136;47.416;19.402;2023-02-11T09:44:51;4.07;75.32
63051;SHT30;49136;47.416;19.402;2023-02-11T09:47:24;4.51;73.51
63051;SHT30;49136;47.416;19.402;2023-02-11T09:49:59;4.91;72.10
63051;SHT30;49136;47.416;19.402;2023-02-11T09:52:40;4.49;71.25
63051;SHT30;49136;47.416;19.402;2023-02-11T09:55:17;4.27;72.54
63051;SHT30;49136;47.416;19.402;2023-02-11T09:57:43;4.40;72.26
63051;SHT30;49136;47.416;19.402;2023-02-11T10:22:37;5.75;68.20
63051;SHT30;49136;47.416;19.402;2023-02-11T10:25:26;5.63;67.36
63051;SHT30;49136;47.416;19.402;2023-02-11T10:27:54;5.67;67.44
63051;SHT30;49136;47.416;19.402;2023-02-11T10:30:27;5.52;68.03
63051;SHT30;49136;47.416;19.402;2023-02-11T10:35:30;5.83;68.05
63051;SHT30;49136;47.416;19.402;2023-02-11T10:37:58;5.83;67.30
63051;SHT30;49136;47.416;19.402;2023-02-11T10:40:27;5.78;66.37
63051;SHT30;49136;47.416;19.402;2023-02-11T10:42:55;5.69;65.66
63051;SHT30;49136;47.416;19.402;2023-02-11T10:49:00;5.94;66.23
63051;SHT30;49136;47.416;19.402;2023-02-11T10:51:25;5.94;65.93
63051;SHT30;49136;47.416;19.402;2023-02-11T10:56:32;6.18;65.19
63051;SHT30;49136;47.416;19.402;2023-02-11T11:01:56;6.40;64.48
63051;SHT30;49136;47.416;19.402;2023-02-11T11:06:55;6.40;65.37
63051;SHT30;49136;47.416;19.402;2023-02-11T11:09:29;6.46;65.46
63051;SHT30;49136;47.416;19.402;2023-02-11T11:11:55;6.51;65.57
63051;SHT30;49136;47.416;19.402;2023-02-11T11:14:22;6.40;65.06
63051;SHT30;49136;47.416;19.402;2023-02-11T11:16:53;6.28;65.43
63051;SHT30;49136;47.416;19.402;2023-02-11T11:19:24;6.50;65.28
63051;SHT30;49136;47.416;19.402;2023-02-11T11:21:54;6.46;65.62
63051;SHT30;49136;47.416;19.402;2023-02-11T11:24:27;6.40;64.59
63051;SHT30;49136;47.416;19.402;2023-02-11T11:26:58;6.78;64.98
63051;SHT30;49136;47.416;19.402;2023-02-11T11:29:38;6.99;63.51
63051;SHT30;49136;47.416;19.402;2023-02-11T11:32:23;7.13;62.43
63051;SHT30;49136;47.416;19.402;2023-02-11T11:34:55;7.27;63.15
63051;SHT30;49136;47.416;19.402;2023-02-11T11:37:28;7.09;63.19
63051;SHT30;49136;47.416;19.402;2023-02-11T11:40:09;6.71;63.76
63051;SHT30;49136;47.416;19.402;2023-02-11T11:42:38;6.98;63.36
63051;SHT30;49136;47.416;19.402;2023-02-11T11:48:27;7.03;63.01
63051;SHT30;49136;47.416;19.402;2023-02-11T11:51:05;7.02;60.89
63051;SHT30;49136;47.416;19.402;2023-02-11T11:53:43;6.78;60.27
63051;SHT30;49136;47.416;19.402;2023-02-11T11:56:19;6.51;60.87
63051;SHT30;49136;47.416;19.402;2023-02-11T11:58:45;6.33;61.02
63051;SHT30;49136;47.416;19.402;2023-02-11T12:09:32;5.98;64.67
63051;SHT30;49136;47.416;19.402;2023-02-11T12:12:31;5.81;65.20
63051;SHT30;49136;47.416;19.402;2023-02-11T12:18:05;5.66;66.34
63051;SHT30;49136;47.416;19.402;2023-02-11T12:20:49;6.21;64.72
63051;SHT30;49136;47.416;19.402;2023-02-11T12:26:48;6.57;62.51
63051;SHT30;49136;47.416;19.402;2023-02-11T12:32:34;6.84;61.59
63051;SHT30;49136;47.416;19.402;2023-02-11T12:43:04;7.51;60.57
63051;SHT30;49136;47.416;19.402;2023-02-11T12:56:45;8.19;60.74
63051;SHT30;49136;47.416;19.402;2023-02-11T12:59:43;8.21;60.89
63051;SHT30;49136;47.416;19.402;2023-02-11T13:04:52;7.94;61.08
63051;SHT30;49136;47.416;19.402;2023-02-11T13:07:25;7.71;62.61
63051;SHT30;49136;47.416;19.402;2023-02-11T13:10:03;7.71;62.76
63051;SHT30;49136;47.416;19.402;2023-02-11T13:12:32;7.48;62.79
63051;SHT30;49136;47.416;19.402;2023-02-11T13:15:17;7.47;64.20
63051;SHT30;49136;47.416;19.402;2023-02-11T13:17:56;7.58;63.25
63051;SHT30;49136;47.416;19.402;2023-02-11T13:20:37;7.38;63.51
63051;SHT30;49136;47.416;19.402;2023-02-11T13:25:57;7.27;63.54
63051;SHT30;49136;47.416;19.402;2023-02-11T13:31:10;7.55;63.05
63051;SHT30;49136;47.416;19.402;2023-02-11T13:33:40;7.93;62.81
63051;SHT30;49136;47.416;19.402;2023-02-11T13:36:13;8.07;62.41
63051;SHT30;49136;47.416;19.402;2023-02-11T13:38:39;8.03;61.70
63051;SHT30;49136;47.416;19.402;2023-02-11T13:41:17;7.52;62.42
63051;SHT30;49136;47.416;19.402;2023-02-11T13:49:40;7.61;62.67
63051;SHT30;49136;47.416;19.402;2023-02-11T13:54:48;7.27;61.19
63051;SHT30;49136;47.416;19.402;2023-02-11T13:57:21;7.55;61.31
63051;SHT30;49136;47.416;19.402;2023-02-11T14:10:56;8.04;60.29
63051;SHT30;49136;47.416;19.402;2023-02-11T14:21:16;8.02;59.68
63051;SHT30;49136;47.416;19.402;2023-02-11T14:23:43;8.03;59.81
63051;SHT30;49136;47.416;19.402;2023-02-11T14:26:30;7.94;60.00
63051;SHT30;49136;47.416;19.402;2023-02-11T14:37:06;7.83;58.96
63051;SHT30;49136;47.416;19.402;2023-02-11T14:39:56;7.82;59.72
63051;SHT30;49136;47.416;19.402;2023-02-11T14:42:24;7.75;59.49
63051;SHT30;49136;47.416;19.402;2023-02-11T14:44:54;7.62;60.55
63051;SHT30;49136;47.416;19.402;2023-02-11T14:50:27;7.48;61.14
63051;SHT30;49136;47.416;19.402;2023-02-11T14:53:00;7.38;61.43
63051;SHT30;49136;47.416;19.402;2023-02-11T14:55:30;7.22;62.24
63051;SHT30;49136;47.416;19.402;2023-02-11T14:58:11;7.13;62.07
63051;SHT30;49136;47.416;19.402;2023-02-11T15:00:59;6.93;63.00
63051;SHT30;49136;47.416;19.402;2023-02-11T15:06:18;6.80;63.10
63051;SHT30;49136;47.416;19.402;2023-02-11T15:09:01;6.67;64.20
63051;SHT30;49136;47.416;19.402;2023-02-11T15:11:33;6.60;63.32
63051;SHT30;49136;47.416;19.402;2023-02-11T15:14:10;6.41;64.66
63051;SHT30;49136;47.416;19.402;2023-02-11T15:16:42;6.33;64.95
63051;SHT30;49136;47.416;19.402;2023-02-11T15:19:29;6.18;64.72
63051;SHT30;49136;47.416;19.402;2023-02-11T15:21:56;6.05;65.01
63051;SHT30;49136;47.416;19.402;2023-02-11T15:24:31;6.08;64.81
63051;SHT30;49136;47.416;19.402;2023-02-11T15:27:13;6.04;65.53
63051;SHT30;49136;47.416;19.402;2023-02-11T15:29:43;5.97;65.27
63051;SHT30;49136;47.416;19.402;2023-02-11T15:32:14;5.99;65.78
63051;SHT30;49136;47.416;19.402;2023-02-11T15:34:45;5.93;65.00
63051;SHT30;49136;47.416;19.402;2023-02-11T15:37:29;5.88;63.20
63051;SHT30;49136;47.416;19.402;2023-02-11T15:40:09;5.93;61.05
63051;SHT30;49136;47.416;19.402;2023-02-11T15:42:34;5.87;61.45
63051;SHT30;49136;47.416;19.402;2023-02-11T15:47:47;5.73;61.15
63051;SHT30;49136;47.416;19.402;2023-02-11T15:50:29;5.60;61.87
63051;SHT30;49136;47.416;19.402;2023-02-11T15:52:58;5.52;62.12
63051;SHT30;49136;47.416;19.402;2023-02-11T15:55:25;5.50;62.46
63051;SHT30;49136;47.416;19.402;2023-02-11T15:57:56;5.38;62.28
63051;SHT30;49136;47.416;19.402;2023-02-11T16:00:27;5.27;62.28
63051;SHT30;49136;47.416;19.402;2023-02-11T16:02:55;5.21;62.74
63051;SHT30;49136;47.416;19.402;2023-02-11T16:07:50;5.05;63.33
63051;SHT30;49136;47.416;19.402;2023-02-11T16:10:23;4.88;64.03
63051;SHT30;49136;47.416;19.402;2023-02-11T16:12:57;4.84;63.85
63051;SHT30;49136;47.416;19.402;2023-02-11T16:18:01;4.79;64.21
63051;SHT30;49136;47.416;19.402;2023-02-11T16:20:28;4.81;64.37
63051;SHT30;49136;47.416;19.402;2023-02-11T16:22:54;4.62;63.96
63051;SHT30;49136;47.416;19.402;2023-02-11T16:25:21;4.40;64.91
63051;SHT30;49136;47.416;19.402;2023-02-11T16:27:50;4.34;65.15
63051;SHT30;49136;47.416;19.402;2023-02-11T16:30:33;4.27;65.33
63051;SHT30;49136;47.416;19.402;2023-02-11T16:32:59;4.17;65.52
63051;SHT30;49136;47.416;19.402;2023-02-11T16:35:25;3.99;66.19
63051;SHT30;49136;47.416;19.402;2023-02-11T16:37:51;3.92;66.60
63051;SHT30;49136;47.416;19.402;2023-02-11T16:40:17;3.86;67.02
63051;SHT30;49136;47.416;19.402;2023-02-11T16:42:42;3.76;67.64
63051;SHT30;49136;47.416;19.402;2023-02-11T16:45:08;3.81;67.42
63051;SHT30;49136;47.416;19.402;2023-02-11T16:47:35;3.85;67.16
63051;SHT30;49136;47.416;19.402;2023-02-11T16:50:08;3.87;67.61
63051;SHT30;49136;47.416;19.402;2023-02-11T16:52:35;3.96;67.41
63051;SHT30;49136;47.416;19.402;2023-02-11T16:55:03;4.09;67.00
63051;SHT30;49136;47.416;19.402;2023-02-11T16:57:30;4.01;67.14
63051;SHT30;49136;47.416;19.402;2023-02-11T16:59:56;3.93;67.49
63051;SHT30;49136;47.416;19.402;2023-02-11T17:02:29;3.78;68.59
63051;SHT30;49136;47.416;19.402;2023-02-11T17:05:05;3.68;69.67
63051;SHT30;49136;47.416;19.402;2023-02-11T17:07:31;3.47;70.44
63051;SHT30;49136;47.416;19.402;2023-02-11T17:09:57;3.45;70.91
63051;SHT30;49136;47.416;19.402;2023-02-11T17:12:24;3.52;70.57
63051;SHT30;49136;47.416;19.402;2023-02-11T17:14:50;3.45;70.74
63051;SHT30;49136;47.416;19.402;2023-02-11T17:17:16;3.30;71.16
63051;SHT30;49136;47.416;19.402;2023-02-11T17:19:44;3.16;71.53
63051;SHT30;49136;47.416;19.402;2023-02-11T17:22:12;3.03;71.90
63051;SHT30;49136;47.416;19.402;2023-02-11T17:24:38;2.91;72.57
63051;SHT30;49136;47.416;19.402;2023-02-11T17:27:03;2.85;72.90
63051;SHT30;49136;47.416;19.402;2023-02-11T17:29:29;2.81;73.19
63051;SHT30;49136;47.416;19.402;2023-02-11T17:31:55;2.85;73.26
63051;SHT30;49136;47.416;19.402;2023-02-11T17:34:22;2.82;73.37
63051;SHT30;49136;47.416;19.402;2023-02-11T17:36:48;2.84;73.39
63051;SHT30;49136;47.416;19.402;2023-02-11T17:39:14;2.81;73.90
63051;SHT30;49136;47.416;19.402;2023-02-11T17:41:40;2.81;74.13
63051;SHT30;49136;47.416;19.402;2023-02-11T17:44:07;2.84;73.60
63051;SHT30;49136;47.416;19.402;2023-02-11T17:46:34;2.81;73.85
63051;SHT30;49136;47.416;19.402;2023-02-11T17:49:00;2.75;74.10
63051;SHT30;49136;47.416;19.402;2023-02-11T17:51:34;2.75;73.90
63051;SHT30;49136;47.416;19.402;2023-02-11T17:54:03;2.74;74.05
63051;SHT30;49136;47.416;19.402;2023-02-11T17:56:31;2.74;73.98
63051;SHT30;49136;47.416;19.402;2023-02-11T17:58:57;2.84;73.78
63051;SHT30;49136;47.416;19.402;2023-02-11T18:01:26;2.79;74.11
63051;SHT30;49136;47.416;19.402;2023-02-11T18:03:53;2.84;74.10
63051;SHT30;49136;47.416;19.402;2023-02-11T18:06:18;2.84;74.01
63051;SHT30;49136;47.416;19.402;2023-02-11T18:08:46;2.82;73.74
63051;SHT30;49136;47.416;19.402;2023-02-11T18:11:13;2.85;74.06
63051;SHT30;49136;47.416;19.402;2023-02-11T18:13:41;2.88;74.09
63051;SHT30;49136;47.416;19.402;2023-02-11T18:16:08;2.89;73.82
63051;SHT30;49136;47.416;19.402;2023-02-11T18:18:41;2.85;74.12
63051;SHT30;49136;47.416;19.402;2023-02-11T18:21:06;2.81;74.06
63051;SHT30;49136;47.416;19.402;2023-02-11T18:23:35;2.77;74.33
63051;SHT30;49136;47.416;19.402;2023-02-11T18:26:01;2.71;74.54